Yarnton, United Kingdom
Current Conditions -  °F | °C
As of 4:20 PM on Monday 26 Jan 2015 (Local Time) from EGTK Reporting Station
Broken Clouds Broken Clouds  
Wind Chill:   Ceiling: 4600
Heat Index:   Visibility: 6mi
Dew Point:   Wind: 6mph
Humidity: 76%   Direction: 300°WNW
Pressure: 30.27"   Gusts: NA
Location:  51.81°N, 1.31°W
Report Text: EGTK 261620Z 30005KT 9999 SCT041 BKN046 07/03 Q1025
Loading
Personal Weather Stations






























Interactive Weather Map New forecast layout! Learn more

10-Day Weather Forecast

Advertisements
Track Severe Weather on mobile